sensor_id;sensor_type;location;lat;lon;timestamp;pressure;altitude;pressure_sealevel;temperature;humidity
33163;BME280;29282;45.656;11.302;2023-05-08T04:42:25;98603.50;;;19.52;53.93
33163;BME280;29282;45.656;11.302;2023-05-08T04:44:51;98604.81;;;19.55;53.32
33163;BME280;29282;45.656;11.302;2023-05-08T04:47:17;98614.47;;;19.61;52.84
33163;BME280;29282;45.656;11.302;2023-05-08T04:49:42;98609.25;;;19.68;51.84
33163;BME280;29282;45.656;11.302;2023-05-08T04:52:08;98606.28;;;19.73;51.20
33163;BME280;29282;45.656;11.302;2023-05-08T04:54:33;98614.66;;;19.77;50.63
33163;BME280;29282;45.656;11.302;2023-05-08T04:56:59;98617.22;;;19.82;50.11
33163;BME280;29282;45.656;11.302;2023-05-08T04:59:24;98626.09;;;19.87;49.48
33163;BME280;29282;45.656;11.302;2023-05-08T05:01:50;98620.25;;;19.89;49.23
33163;BME280;29282;45.656;11.302;2023-05-08T05:04:16;98617.97;;;19.91;48.70
33163;BME280;29282;45.656;11.302;2023-05-08T05:06:41;98626.69;;;19.93;48.44
33163;BME280;29282;45.656;11.302;2023-05-08T05:09:07;98624.41;;;19.95;47.99
33163;BME280;29282;45.656;11.302;2023-05-08T05:11:33;98617.75;;;19.96;47.75
33163;BME280;29282;45.656;11.302;2023-05-08T05:13:58;98618.56;;;19.97;47.32
33163;BME280;29282;45.656;11.302;2023-05-08T05:16:24;98615.81;;;19.97;47.03
33163;BME280;29282;45.656;11.302;2023-05-08T05:18:49;98622.94;;;19.98;47.20
33163;BME280;29282;45.656;11.302;2023-05-08T05:21:15;98622.25;;;20.01;46.71
33163;BME280;29282;45.656;11.302;2023-05-08T05:23:40;98624.22;;;20.00;46.62
33163;BME280;29282;45.656;11.302;2023-05-08T05:26:06;98622.59;;;19.99;47.08
33163;BME280;29282;45.656;11.302;2023-05-08T05:28:32;98615.91;;;19.88;48.34
33163;BME280;29282;45.656;11.302;2023-05-08T05:30:57;98618.03;;;19.82;48.40
33163;BME280;29282;45.656;11.302;2023-05-08T05:33:23;98621.41;;;19.88;47.60
33163;BME280;29282;45.656;11.302;2023-05-08T05:35:48;98617.31;;;19.94;46.97
33163;BME280;29282;45.656;11.302;2023-05-08T05:38:14;98618.22;;;19.98;46.59
33163;BME280;29282;45.656;11.302;2023-05-08T05:40:39;98619.84;;;19.99;47.98
33163;BME280;29282;45.656;11.302;2023-05-08T05:43:04;98618.66;;;19.88;49.31
33163;BME280;29282;45.656;11.302;2023-05-08T05:45:30;98621.59;;;19.83;49.05
33163;BME280;29282;45.656;11.302;2023-05-08T05:47:56;98619.84;;;19.78;49.75
33163;BME280;29282;45.656;11.302;2023-05-08T05:50:21;98623.22;;;19.84;49.73
33163;BME280;29282;45.656;11.302;2023-05-08T05:52:47;98622.53;;;19.87;50.43
33163;BME280;29282;45.656;11.302;2023-05-08T05:55:12;98619.50;;;19.80;51.12
33163;BME280;29282;45.656;11.302;2023-05-08T05:57:38;98617.41;;;19.77;51.18
33163;BME280;29282;45.656;11.302;2023-05-08T06:00:04;98625.00;;;19.80;51.18
33163;BME280;29282;45.656;11.302;2023-05-08T06:02:34;98622.88;;;19.85;50.25
33163;BME280;29282;45.656;11.302;2023-05-08T06:05:00;98620.78;;;19.82;51.45
33163;BME280;29282;45.656;11.302;2023-05-08T06:07:25;98616.31;;;19.78;51.69
33163;BME280;29282;45.656;11.302;2023-05-08T06:09:51;98618.91;;;19.74;51.29
33163;BME280;29282;45.656;11.302;2023-05-08T06:12:17;98619.97;;;19.82;51.24
33163;BME280;29282;45.656;11.302;2023-05-08T06:14:43;98621.59;;;19.83;51.48
33163;BME280;29282;45.656;11.302;2023-05-08T06:17:09;98619.84;;;19.78;52.17
33163;BME280;29282;45.656;11.302;2023-05-08T06:19:37;98620.53;;;19.75;52.17
33163;BME280;29282;45.656;11.302;2023-05-08T06:22:02;98617.91;;;19.79;51.75
33163;BME280;29282;45.656;11.302;2023-05-08T06:24:28;98619.31;;;19.85;51.36
33163;BME280;29282;45.656;11.302;2023-05-08T06:26:56;98616.75;;;19.80;52.35
33163;BME280;29282;45.656;11.302;2023-05-08T06:29:21;98617.78;;;19.75;51.93
33163;BME280;29282;45.656;11.302;2023-05-08T06:31:47;98618.25;;;19.77;52.55
33163;BME280;29282;45.656;11.302;2023-05-08T06:34:12;98624.00;;;19.84;51.51
33163;BME280;29282;45.656;11.302;2023-05-08T06:36:38;98621.94;;;19.81;52.35
33163;BME280;29282;45.656;11.302;2023-05-08T06:39:04;98622.91;;;19.77;52.60
33163;BME280;29282;45.656;11.302;2023-05-08T06:41:30;98630.22;;;19.73;52.47
33163;BME280;29282;45.656;11.302;2023-05-08T06:43:56;98630.97;;;19.82;51.90
33163;BME280;29282;45.656;11.302;2023-05-08T06:46:21;98625.47;;;19.82;52.42
33163;BME280;29282;45.656;11.302;2023-05-08T06:48:47;98626.50;;;19.77;52.94
33163;BME280;29282;45.656;11.302;2023-05-08T06:51:12;98632.66;;;19.74;52.55
33163;BME280;29282;45.656;11.302;2023-05-08T06:53:37;98633.25;;;19.80;52.38
33163;BME280;29282;45.656;11.302;2023-05-08T06:56:03;98632.59;;;19.83;52.48
33163;BME280;29282;45.656;11.302;2023-05-08T06:58:28;98632.44;;;19.79;53.28
33163;BME280;29282;45.656;11.302;2023-05-08T07:00:58;98628.28;;;19.73;52.89
33163;BME280;29282;45.656;11.302;2023-05-08T07:03:23;98627.75;;;19.80;52.79
33163;BME280;29282;45.656;11.302;2023-05-08T07:05:52;98629.16;;;19.86;52.87
33163;BME280;29282;45.656;11.302;2023-05-08T07:08:17;98626.94;;;19.79;53.47
33163;BME280;29282;45.656;11.302;2023-05-08T07:10:43;98630.72;;;19.75;53.26
33163;BME280;29282;45.656;11.302;2023-05-08T07:13:08;98621.13;;;19.81;53.04
33163;BME280;29282;45.656;11.302;2023-05-08T07:15:34;98629.97;;;19.86;52.92
33163;BME280;29282;45.656;11.302;2023-05-08T07:17:59;98627.75;;;19.80;53.58
33163;BME280;29282;45.656;11.302;2023-05-08T07:20:25;98639.75;;;19.75;53.42
33163;BME280;29282;45.656;11.302;2023-05-08T07:22:50;98633.25;;;19.80;53.18
33163;BME280;29282;45.656;11.302;2023-05-08T07:25:18;98639.03;;;19.87;52.55
33163;BME280;29282;45.656;11.302;2023-05-08T07:27:44;98635.34;;;19.83;53.58
33163;BME280;29282;45.656;11.302;2023-05-08T07:30:10;98642.16;;;19.77;53.39
33163;BME280;29282;45.656;11.302;2023-05-08T07:32:35;98636.47;;;19.82;53.28
33163;BME280;29282;45.656;11.302;2023-05-08T07:35:03;98640.78;;;19.91;52.48
33163;BME280;29282;45.656;11.302;2023-05-08T07:37:30;98634.78;;;19.89;53.16
33163;BME280;29282;45.656;11.302;2023-05-08T07:39:56;98638.09;;;19.83;53.59
33163;BME280;29282;45.656;11.302;2023-05-08T07:42:24;98641.97;;;19.82;53.64
33163;BME280;29282;45.656;11.302;2023-05-08T07:44:49;98642.25;;;19.89;52.56
33163;BME280;29282;45.656;11.302;2023-05-08T07:47:15;98634.94;;;19.93;52.87
33163;BME280;29282;45.656;11.302;2023-05-08T07:49:41;98637.41;;;19.86;53.60
33163;BME280;29282;45.656;11.302;2023-05-08T07:52:06;98638.75;;;19.80;53.58
33163;BME280;29282;45.656;11.302;2023-05-08T07:54:31;98644.19;;;19.88;52.98
33163;BME280;29282;45.656;11.302;2023-05-08T07:56:57;98642.50;;;19.96;52.24
33163;BME280;29282;45.656;11.302;2023-05-08T07:59:23;98642.72;;;19.91;53.25
33163;BME280;29282;45.656;11.302;2023-05-08T08:01:48;98646.00;;;19.84;53.47
33163;BME280;29282;45.656;11.302;2023-05-08T08:04:14;98646.13;;;19.88;53.31
33163;BME280;29282;45.656;11.302;2023-05-08T08:06:39;98647.88;;;19.92;52.56
33163;BME280;29282;45.656;11.302;2023-05-08T08:09:05;98650.97;;;19.91;53.38
33163;BME280;29282;45.656;11.302;2023-05-08T08:11:30;98654.72;;;19.86;53.63
33163;BME280;29282;45.656;11.302;2023-05-08T08:13:56;98657.81;;;19.85;53.68
33163;BME280;29282;45.656;11.302;2023-05-08T08:16:22;98659.69;;;19.93;52.72
33163;BME280;29282;45.656;11.302;2023-05-08T08:18:47;98655.94;;;19.98;52.53
33163;BME280;29282;45.656;11.302;2023-05-08T08:21:13;98663.91;;;19.90;53.20
33163;BME280;29282;45.656;11.302;2023-05-08T08:23:38;98667.22;;;19.84;53.26
33163;BME280;29282;45.656;11.302;2023-05-08T08:26:04;98674.91;;;19.90;53.08
33163;BME280;29282;45.656;11.302;2023-05-08T08:28:29;98678.06;;;20.01;52.26
33163;BME280;29282;45.656;11.302;2023-05-08T08:30:55;98676.66;;;19.95;53.31
33163;BME280;29282;45.656;11.302;2023-05-08T08:33:20;98683.03;;;19.87;53.64
33163;BME280;29282;45.656;11.302;2023-05-08T08:35:46;98678.00;;;19.89;53.38
33163;BME280;29282;45.656;11.302;2023-05-08T08:38:11;98678.59;;;19.94;52.58
33163;BME280;29282;45.656;11.302;2023-05-08T08:40:41;98682.28;;;19.99;52.45
33163;BME280;29282;45.656;11.302;2023-05-08T08:43:07;98680.06;;;19.92;53.47
33163;BME280;29282;45.656;11.302;2023-05-08T08:45:33;98680.59;;;19.85;53.13
33163;BME280;29282;45.656;11.302;2023-05-08T08:48:02;98673.78;;;19.91;52.88
33163;BME280;29282;45.656;11.302;2023-05-08T08:50:32;98678.06;;;20.01;52.02
33163;BME280;29282;45.656;11.302;2023-05-08T08:55:24;98685.91;;;19.90;53.42
33163;BME280;29282;45.656;11.302;2023-05-08T08:58:13;98682.34;;;19.90;53.11
33163;BME280;29282;45.656;11.302;2023-05-08T09:00:40;98682.16;;;19.95;52.45
33163;BME280;29282;45.656;11.302;2023-05-08T09:03:06;98685.72;;;19.95;53.07
33163;BME280;29282;45.656;11.302;2023-05-08T09:05:32;98678.00;;;19.89;53.56
33163;BME280;29282;45.656;11.302;2023-05-08T09:07:58;98686.59;;;19.87;53.45
33163;BME280;29282;45.656;11.302;2023-05-08T09:10:24;98683.31;;;19.94;52.64
33163;BME280;29282;45.656;11.302;2023-05-08T09:12:49;98681.34;;;19.94;53.14
33163;BME280;29282;45.656;11.302;2023-05-08T09:15:15;98681.53;;;19.89;53.48
33163;BME280;29282;45.656;11.302;2023-05-08T09:17:41;98681.41;;;19.86;53.67
33163;BME280;29282;45.656;11.302;2023-05-08T09:20:07;98681.69;;;19.93;52.84
33163;BME280;29282;45.656;11.302;2023-05-08T09:22:35;98683.44;;;19.98;52.70
33163;BME280;29282;45.656;11.302;2023-05-08T09:25:01;98689.47;;;19.91;53.47
33163;BME280;29282;45.656;11.302;2023-05-08T09:27:29;98686.09;;;19.85;53.45
33163;BME280;29282;45.656;11.302;2023-05-08T09:30:06;98688.00;;;19.93;52.81
33163;BME280;29282;45.656;11.302;2023-05-08T09:32:37;98687.47;;;20.00;52.53
33163;BME280;29282;45.656;11.302;2023-05-08T09:35:04;98688.31;;;19.92;53.41
33163;BME280;29282;45.656;11.302;2023-05-08T09:37:30;98690.47;;;19.86;53.44
33163;BME280;29282;45.656;11.302;2023-05-08T09:40:19;98687.19;;;19.93;52.87
33163;BME280;29282;45.656;11.302;2023-05-08T09:42:46;98697.63;;;20.00;52.39
33163;BME280;29282;45.656;11.302;2023-05-08T09:45:28;98695.41;;;19.93;53.47
33163;BME280;29282;45.656;11.302;2023-05-08T09:47:55;98694.84;;;19.87;53.09
33163;BME280;29282;45.656;11.302;2023-05-08T09:50:20;98695.41;;;19.93;52.96
33163;BME280;29282;45.656;11.302;2023-05-08T09:52:47;98693.28;;;19.99;52.38
33163;BME280;29282;45.656;11.302;2023-05-08T09:55:15;98697.84;;;19.94;53.44
33163;BME280;29282;45.656;11.302;2023-05-08T09:57:55;98702.75;;;19.89;53.65
33163;BME280;29282;45.656;11.302;2023-05-08T10:00:22;98694.97;;;19.91;53.07
33163;BME280;29282;45.656;11.302;2023-05-08T10:02:56;98699.28;;;20.01;52.45
33163;BME280;29282;45.656;11.302;2023-05-08T10:07:56;98701.13;;;19.88;53.68
33163;BME280;29282;45.656;11.302;2023-05-08T10:10:23;98700.13;;;19.92;53.18
33163;BME280;29282;45.656;11.302;2023-05-08T10:12:51;98705.09;;;19.99;52.43
33163;BME280;29282;45.656;11.302;2023-05-08T10:15:17;98701.53;;;19.99;53.01
33163;BME280;29282;45.656;11.302;2023-05-08T10:18:03;98705.97;;;19.91;53.54
33163;BME280;29282;45.656;11.302;2023-05-08T10:20:34;98701.28;;;19.91;53.33
33163;BME280;29282;45.656;11.302;2023-05-08T10:23:01;98691.34;;;19.99;52.41
33163;BME280;29282;45.656;11.302;2023-05-08T10:25:33;98701.53;;;19.99;52.85
33163;BME280;29282;45.656;11.302;2023-05-08T10:28:20;98699.31;;;19.92;53.45
33163;BME280;29282;45.656;11.302;2023-05-08T10:30:48;98702.41;;;19.90;53.46
33163;BME280;29282;45.656;11.302;2023-05-08T10:33:18;98700.75;;;19.98;52.78
33163;BME280;29282;45.656;11.302;2023-05-08T10:35:44;98699.94;;;19.98;53.22
33163;BME280;29282;45.656;11.302;2023-05-08T10:38:10;98693.03;;;19.91;53.68
33163;BME280;29282;45.656;11.302;2023-05-08T10:40:39;98697.25;;;19.89;53.64
33163;BME280;29282;45.656;11.302;2023-05-08T10:43:06;98691.22;;;19.95;52.68
33163;BME280;29282;45.656;11.302;2023-05-08T10:45:32;98700.75;;;19.98;53.10
33163;BME280;29282;45.656;11.302;2023-05-08T10:51:04;98689.00;;;19.89;53.44
33163;BME280;29282;45.656;11.302;2023-05-08T10:56:02;98686.06;;;19.94;53.47
33163;BME280;29282;45.656;11.302;2023-05-08T10:58:32;98686.25;;;19.89;53.64
33163;BME280;29282;45.656;11.302;2023-05-08T11:03:29;98689.59;;;19.94;52.63
33163;BME280;29282;45.656;11.302;2023-05-08T11:05:56;98692.66;;;19.93;53.40
33163;BME280;29282;45.656;11.302;2023-05-08T11:08:24;98681.09;;;19.87;53.78
33163;BME280;29282;45.656;11.302;2023-05-08T11:13:41;98687.66;;;19.95;52.67
33163;BME280;29282;45.656;11.302;2023-05-08T11:16:08;98687.66;;;19.95;53.26
33163;BME280;29282;45.656;11.302;2023-05-08T11:18:35;98689.00;;;19.89;53.72
33163;BME280;29282;45.656;11.302;2023-05-08T11:21:03;98685.31;;;19.85;53.78
33163;BME280;29282;45.656;11.302;2023-05-08T11:23:30;98686.50;;;19.96;52.77
33163;BME280;29282;45.656;11.302;2023-05-08T11:26:04;98687.31;;;19.97;52.90
33163;BME280;29282;45.656;11.302;2023-05-08T11:28:37;98687.03;;;19.89;53.59
33163;BME280;29282;45.656;11.302;2023-05-08T11:31:04;98694.69;;;19.84;53.68
33163;BME280;29282;45.656;11.302;2023-05-08T11:33:38;98691.06;;;19.92;52.70
33163;BME280;29282;45.656;11.302;2023-05-08T11:36:20;98693.63;;;19.97;53.04
33163;BME280;29282;45.656;11.302;2023-05-08T11:39:07;98692.53;;;19.89;53.62
33163;BME280;29282;45.656;11.302;2023-05-08T11:41:33;98680.13;;;19.83;53.85
33163;BME280;29282;45.656;11.302;2023-05-08T11:46:43;98681.34;;;19.94;53.25
33163;BME280;29282;45.656;11.302;2023-05-08T11:49:14;98683.84;;;19.87;53.76
33163;BME280;29282;45.656;11.302;2023-05-08T11:51:42;98690.00;;;19.84;53.58
33163;BME280;29282;45.656;11.302;2023-05-08T11:54:14;98691.56;;;19.94;52.73
33163;BME280;29282;45.656;11.302;2023-05-08T11:56:40;98689.25;;;19.96;53.08
33163;BME280;29282;45.656;11.302;2023-05-08T11:59:07;98687.38;;;19.88;53.66
33163;BME280;29282;45.656;11.302;2023-05-08T12:01:34;98687.56;;;19.83;53.59
33163;BME280;29282;45.656;11.302;2023-05-08T12:04:04;98689.91;;;19.93;52.85
33163;BME280;29282;45.656;11.302;2023-05-08T12:06:33;98689.75;;;19.98;52.70
33163;BME280;29282;45.656;11.302;2023-05-08T12:09:00;98685.09;;;19.90;53.58
33163;BME280;29282;45.656;11.302;2023-05-08T12:11:27;98686.44;;;19.84;53.51
33163;BME280;29282;45.656;11.302;2023-05-08T12:13:53;98679.94;;;19.88;53.09
33163;BME280;29282;45.656;11.302;2023-05-08T12:16:22;98684.44;;;19.93;52.94
33163;BME280;29282;45.656;11.302;2023-05-08T12:18:50;98679.94;;;19.88;53.67
33163;BME280;29282;45.656;11.302;2023-05-08T12:21:16;98677.38;;;19.83;53.78
33163;BME280;29282;45.656;11.302;2023-05-08T12:23:41;98687.84;;;19.90;53.09
33163;BME280;29282;45.656;11.302;2023-05-08T12:26:07;98687.19;;;19.93;53.22
33163;BME280;29282;45.656;11.302;2023-05-08T12:28:33;98687.03;;;19.89;54.03
33163;BME280;29282;45.656;11.302;2023-05-08T12:30:59;98685.31;;;19.85;53.77
33163;BME280;29282;45.656;11.302;2023-05-08T12:33:24;98684.63;;;19.88;53.39
33163;BME280;29282;45.656;11.302;2023-05-08T12:35:50;98685.25;;;19.93;52.79
33163;BME280;29282;45.656;11.302;2023-05-08T12:38:16;98687.53;;;19.91;53.92
33163;BME280;29282;45.656;11.302;2023-05-08T12:40:45;98689.66;;;19.86;53.58
33163;BME280;29282;45.656;11.302;2023-05-08T12:43:13;98688.19;;;19.88;53.53
33163;BME280;29282;45.656;11.302;2023-05-08T12:45:41;98690.75;;;19.93;52.70
33163;BME280;29282;45.656;11.302;2023-05-08T12:48:15;98686.72;;;19.91;53.84
33163;BME280;29282;45.656;11.302;2023-05-08T12:50:41;98686.09;;;19.85;53.65
33163;BME280;29282;45.656;11.302;2023-05-08T12:53:12;98686.25;;;19.89;53.54
33163;BME280;29282;45.656;11.302;2023-05-08T12:55:38;98688.31;;;19.92;52.82
33163;BME280;29282;45.656;11.302;2023-05-08T13:03:09;98684.16;;;19.86;53.71
33163;BME280;29282;45.656;11.302;2023-05-08T13:05:36;98681.69;;;19.93;52.84
33163;BME280;29282;45.656;11.302;2023-05-08T13:08:04;98682.03;;;19.91;53.60
33163;BME280;29282;45.656;11.302;2023-05-08T13:10:53;98686.59;;;19.87;54.16
33163;BME280;29282;45.656;11.302;2023-05-08T13:13:20;98680.94;;;19.84;54.87
33163;BME280;29282;45.656;11.302;2023-05-08T13:15:47;98674.63;;;19.83;55.42
33163;BME280;29282;45.656;11.302;2023-05-08T13:18:13;98683.69;;;19.84;55.44
33163;BME280;29282;45.656;11.302;2023-05-08T13:20:39;98670.28;;;19.82;55.84
33163;BME280;29282;45.656;11.302;2023-05-08T13:23:05;98667.88;;;19.81;55.88
33163;BME280;29282;45.656;11.302;2023-05-08T13:25:32;98667.59;;;19.74;56.41
33163;BME280;29282;45.656;11.302;2023-05-08T13:27:58;98664.38;;;19.71;56.60
33163;BME280;29282;45.656;11.302;2023-05-08T13:30:23;98667.91;;;19.72;56.64
33163;BME280;29282;45.656;11.302;2023-05-08T13:32:50;98660.03;;;19.70;56.51
33163;BME280;29282;45.656;11.302;2023-05-08T13:35:16;98660.03;;;19.70;56.46
33163;BME280;29282;45.656;11.302;2023-05-08T13:37:41;98651.28;;;19.68;56.42
33163;BME280;29282;45.656;11.302;2023-05-08T13:40:07;98650.16;;;19.69;56.35
33163;BME280;29282;45.656;11.302;2023-05-08T13:42:33;98650.16;;;19.69;56.34
33163;BME280;29282;45.656;11.302;2023-05-08T13:44:58;98655.66;;;19.69;56.17
33163;BME280;29282;45.656;11.302;2023-05-08T13:47:24;98651.78;;;19.70;56.21
33163;BME280;29282;45.656;11.302;2023-05-08T13:49:52;98650.94;;;19.70;56.12
33163;BME280;29282;45.656;11.302;2023-05-08T13:52:17;98647.41;;;19.69;56.13
33163;BME280;29282;45.656;11.302;2023-05-08T13:54:43;98649.34;;;19.69;56.16
33163;BME280;29282;45.656;11.302;2023-05-08T13:57:08;98648.19;;;19.70;55.99
33163;BME280;29282;45.656;11.302;2023-05-08T13:59:34;98641.09;;;19.69;56.03
33163;BME280;29282;45.656;11.302;2023-05-08T14:02:00;98637.56;;;19.68;55.94
33163;BME280;29282;45.656;11.302;2023-05-08T14:04:25;98643.03;;;19.68;56.05
33163;BME280;29282;45.656;11.302;2023-05-08T14:06:51;98646.59;;;19.69;56.00
33163;BME280;29282;45.656;11.302;2023-05-08T14:09:16;98638.34;;;19.69;56.00
33163;BME280;29282;45.656;11.302;2023-05-08T14:11:42;98642.25;;;19.68;56.00
33163;BME280;29282;45.656;11.302;2023-05-08T14:14:08;98634.81;;;19.68;55.92
33163;BME280;29282;45.656;11.302;2023-05-08T14:16:33;98634.00;;;19.68;55.93
33163;BME280;29282;45.656;11.302;2023-05-08T14:18:58;98634.81;;;19.68;55.89
33163;BME280;29282;45.656;11.302;2023-05-08T14:21:27;98637.56;;;19.68;55.88
33163;BME280;29282;45.656;11.302;2023-05-08T14:23:52;98643.03;;;19.68;55.88
33163;BME280;29282;45.656;11.302;2023-05-08T14:26:18;98643.84;;;19.69;55.99
33163;BME280;29282;45.656;11.302;2023-05-08T14:28:45;98640.28;;;19.68;55.93
33163;BME280;29282;45.656;11.302;2023-05-08T14:31:10;98634.00;;;19.68;55.90
33163;BME280;29282;45.656;11.302;2023-05-08T14:33:36;98631.25;;;19.68;55.83
33163;BME280;29282;45.656;11.302;2023-05-08T14:36:01;98630.44;;;19.67;55.86
33163;BME280;29282;45.656;11.302;2023-05-08T14:38:26;98630.44;;;19.67;55.92
33163;BME280;29282;45.656;11.302;2023-05-08T14:40:52;98619.47;;;19.67;56.00
33163;BME280;29282;45.656;11.302;2023-05-08T14:43:21;98613.97;;;19.67;55.95
33163;BME280;29282;45.656;11.302;2023-05-08T14:45:47;98611.22;;;19.67;56.06
33163;BME280;29282;45.656;11.302;2023-05-08T14:48:13;98623.00;;;19.68;55.73
33163;BME280;29282;45.656;11.302;2023-05-08T14:50:38;98605.72;;;19.67;55.90
33163;BME280;29282;45.656;11.302;2023-05-08T14:53:04;98602.16;;;19.67;55.93
33163;BME280;29282;45.656;11.302;2023-05-08T14:55:29;98600.22;;;19.67;55.88
33163;BME280;29282;45.656;11.302;2023-05-08T14:57:55;98606.16;;;19.69;55.90
33163;BME280;29282;45.656;11.302;2023-05-08T15:00:21;98597.59;;;19.71;55.83
33163;BME280;29282;45.656;11.302;2023-05-08T15:02:46;98602.28;;;19.70;55.70
33163;BME280;29282;45.656;11.302;2023-05-08T15:05:12;98594.03;;;19.70;55.79
33163;BME280;29282;45.656;11.302;2023-05-08T15:07:38;98590.16;;;19.71;55.77
33163;BME280;29282;45.656;11.302;2023-05-08T15:10:03;98595.97;;;19.70;55.71
33163;BME280;29282;45.656;11.302;2023-05-08T15:12:29;98594.38;;;19.69;55.73
33163;BME280;29282;45.656;11.302;2023-05-08T15:14:54;98596.78;;;19.70;55.82
33163;BME280;29282;45.656;11.302;2023-05-08T15:17:20;98596.31;;;19.68;55.81
33163;BME280;29282;45.656;11.302;2023-05-08T15:19:45;98597.13;;;19.69;55.87
33163;BME280;29282;45.656;11.302;2023-05-08T15:22:11;98602.97;;;19.67;55.97
33163;BME280;29282;45.656;11.302;2023-05-08T15:24:37;98598.25;;;19.68;55.90
33163;BME280;29282;45.656;11.302;2023-05-08T15:27:02;98603.75;;;19.68;55.90
33163;BME280;29282;45.656;11.302;2023-05-08T15:29:28;98606.81;;;19.66;56.07
33163;BME280;29282;45.656;11.302;2023-05-08T15:31:53;98606.81;;;19.66;56.08
33163;BME280;29282;45.656;11.302;2023-05-08T15:34:19;98610.41;;;19.67;56.00
33163;BME280;29282;45.656;11.302;2023-05-08T15:36:45;98607.97;;;19.65;55.78
33163;BME280;29282;45.656;11.302;2023-05-08T15:39:10;98603.28;;;19.66;56.02
33163;BME280;29282;45.656;11.302;2023-05-08T15:41:35;98619.78;;;19.66;56.16
33163;BME280;29282;45.656;11.302;2023-05-08T15:44:03;98614.63;;;19.64;56.19
33163;BME280;29282;45.656;11.302;2023-05-08T15:46:28;98618.16;;;19.65;55.98
33163;BME280;29282;45.656;11.302;2023-05-08T15:48:54;98620.13;;;19.64;55.98
33163;BME280;29282;45.656;11.302;2023-05-08T15:51:19;98628.38;;;19.64;56.13
33163;BME280;29282;45.656;11.302;2023-05-08T15:53:44;98622.06;;;19.64;56.18
33163;BME280;29282;45.656;11.302;2023-05-08T15:56:13;98629.16;;;19.65;56.10
33163;BME280;29282;45.656;11.302;2023-05-08T15:58:38;98629.16;;;19.65;56.38
33163;BME280;29282;45.656;11.302;2023-05-08T16:01:07;98622.88;;;19.64;56.22
33163;BME280;29282;45.656;11.302;2023-05-08T16:03:33;98630.31;;;19.64;56.19
33163;BME280;29282;45.656;11.302;2023-05-08T16:05:58;98629.47;;;19.63;56.18
33163;BME280;29282;45.656;11.302;2023-05-08T16:08:23;98623.16;;;19.63;56.14
33163;BME280;29282;45.656;11.302;2023-05-08T16:10:49;98627.84;;;19.62;56.20
33163;BME280;29282;45.656;11.302;2023-05-08T16:13:14;98627.84;;;19.62;56.22
33163;BME280;29282;45.656;11.302;2023-05-08T16:15:40;98634.97;;;19.63;56.12
33163;BME280;29282;45.656;11.302;2023-05-08T16:18:06;98629.81;;;19.62;56.07
33163;BME280;29282;45.656;11.302;2023-05-08T16:20:31;98631.41;;;19.63;56.07
33163;BME280;29282;45.656;11.302;2023-05-08T16:22:57;98636.09;;;19.62;56.32
33163;BME280;29282;45.656;11.302;2023-05-08T16:25:24;98634.50;;;19.61;56.41
33163;BME280;29282;45.656;11.302;2023-05-08T16:27:50;98629.00;;;19.61;56.47
33163;BME280;29282;45.656;11.302;2023-05-08T16:30:16;98627.84;;;19.62;56.44
33163;BME280;29282;45.656;11.302;2023-05-08T16:32:42;98627.84;;;19.62;56.53
33163;BME280;29282;45.656;11.302;2023-05-08T16:35:09;98627.06;;;19.62;56.43
33163;BME280;29282;45.656;11.302;2023-05-08T16:37:35;98623.50;;;19.61;56.87
33163;BME280;29282;45.656;11.302;2023-05-08T16:40:01;98620.75;;;19.61;56.63
33163;BME280;29282;45.656;11.302;2023-05-08T16:42:26;98620.75;;;19.61;56.60
33163;BME280;29282;45.656;11.302;2023-05-08T16:44:52;98623.50;;;19.61;56.45
33163;BME280;29282;45.656;11.302;2023-05-08T16:47:17;98626.25;;;19.61;56.60
33163;BME280;29282;45.656;11.302;2023-05-08T16:49:43;98626.25;;;19.61;56.82
33163;BME280;29282;45.656;11.302;2023-05-08T16:52:09;98634.50;;;19.61;56.62
33163;BME280;29282;45.656;11.302;2023-05-08T16:54:35;98631.75;;;19.61;56.60
33163;BME280;29282;45.656;11.302;2023-05-08T16:57:00;98630.94;;;19.61;56.63
33163;BME280;29282;45.656;11.302;2023-05-08T16:59:25;98639.19;;;19.61;56.59
33163;BME280;29282;45.656;11.302;2023-05-08T17:01:51;98638.41;;;19.60;56.63
33163;BME280;29282;45.656;11.302;2023-05-08T17:04:16;98641.16;;;19.60;56.71
33163;BME280;29282;45.656;11.302;2023-05-08T17:06:42;98640.00;;;19.61;56.46
33163;BME280;29282;45.656;11.302;2023-05-08T17:09:07;98642.75;;;19.61;56.64
33163;BME280;29282;45.656;11.302;2023-05-08T17:11:33;98638.84;;;19.62;56.59
33163;BME280;29282;45.656;11.302;2023-05-08T17:13:58;98640.00;;;19.61;56.67
33163;BME280;29282;45.656;11.302;2023-05-08T17:16:24;98646.66;;;19.60;56.85
33163;BME280;29282;45.656;11.302;2023-05-08T17:18:49;98641.16;;;19.60;56.57
33163;BME280;29282;45.656;11.302;2023-05-08T17:21:15;98652.13;;;19.60;56.92
33163;BME280;29282;45.656;11.302;2023-05-08T17:23:40;98652.13;;;19.60;57.02
33163;BME280;29282;45.656;11.302;2023-05-08T17:26:05;98647.75;;;19.59;57.05
33163;BME280;29282;45.656;11.302;2023-05-08T17:28:31;98656.81;;;19.60;57.02
33163;BME280;29282;45.656;11.302;2023-05-08T17:30:56;98656.00;;;19.59;57.03
33163;BME280;29282;45.656;11.302;2023-05-08T17:33:22;98661.50;;;19.59;57.10
33163;BME280;29282;45.656;11.302;2023-05-08T17:35:48;98664.25;;;19.59;57.21
33163;BME280;29282;45.656;11.302;2023-05-08T17:38:13;98667.00;;;19.59;57.21
33163;BME280;29282;45.656;11.302;2023-05-08T17:40:39;98670.53;;;19.60;57.17
33163;BME280;29282;45.656;11.302;2023-05-08T17:43:05;98675.25;;;19.59;57.27
33163;BME280;29282;45.656;11.302;2023-05-08T17:45:32;98675.25;;;19.59;57.28
33163;BME280;29282;45.656;11.302;2023-05-08T17:47:58;98677.19;;;19.59;57.33
33163;BME280;29282;45.656;11.302;2023-05-08T17:50:24;98677.19;;;19.59;57.46
33163;BME280;29282;45.656;11.302;2023-05-08T17:52:49;98679.13;;;19.58;57.39